Bryce Canyon Airport
KBCE : now visible

Airfield :











YOU CAN JOIN US ON...

 
LOGIN :

Register | Disclaimer

   EN    FR    IT 

 









Legend :    VFR   Marginal VFR   IFR   Intensive IFR   Very Intensive IFR
Visi :
Ceiling :
>= 8 km
>= 3000ft
5 to 8 km
1000 to 3000 ft
1500m to 5 km
500 to 1000 ft
800 to 1500m
200 to 500 ft
< 800m
< 200 ft
Symbols :   Thunderstorms  Fog  Heavy snow  Heavy precipitations  Wind > 20 kt






- Airport Elevation : 7590 ft


KBCE - Bryce Canyon

CURRENT METAR :
  • 080653Z AUTO 14012KT 1/4SM FG VV001 01/01 A3009 RMK AO2 SLP147 T00110006 400221067 $

EXPIRED METARs :
  • 080638Z AUTO 14013KT 1/4SM FG VV001 01/01 A3009 RMK AO2 T00110006 $
  • 080631Z AUTO 14011KT 1/4SM FG VV002 01/01 A3010 RMK AO2 T00110006 $
  • 080553Z AUTO 14012KT 1/2SM FG BKN001 OVC028 01/01 A3011 RMK AO2 SLP155 60000 T00110006 10017 20011 55007 $
  • 080540Z AUTO 14013KT 1SM BR BKN001 BKN028 01/01 A3011 RMK AO2 T00110006 $
  • 080516Z AUTO 14008KT 1/4SM FG BKN001 BKN030 OVC035 01/01 A3012 RMK AO2 T00110006 $
  • 080503Z AUTO 15009KT 1/2SM FG BKN002 BKN030 OVC035 02/01 A3013 RMK AO2 T00170011 $
  • 080453Z AUTO 15011KT 1/4SM FG VV002 01/01 A3012 RMK AO2 SLP163 T00110006 $

TAF KBCE
Valid from the 08 at 06:00 until the 09 at 06:00 UTC


080526Z 0806/0906 15007KT 1/4SM FG VCSH VV002
FM080800 16007KT P6SM VCSH BKN025 BKN040
FM081600 23008KT 1SM -SN BR SCT007 BKN015
FM082100 28010KT 1SM -SN BR BKN007 BKN015
FM090200 30006KT P6SM VCSH SCT020 BKN040



MET'MAP, your aeronautical weather chart ! - Copyright ORBIFLY December 2007 - Disclaimer

ORBIFLY MET'MAP TEAM :

Programming & Development : Alexandra Zaïnal
Concept & original design : Baudouin d'Aumeries
Assistance for programming : Marc-Olivier Méhu
Technical & hardware support : Manuel Goepfert

Contact : metmap@orbifly.com




SOURCES & CREDITS :

   NOAA       Earth
Advisory